Time;durP1;ratioP1;P1;durP2;ratioP2;P2;SDS_P1;SDS_P2;PMS_P1;PMS_P2;Temp;Humidity;BMP_temperature;BMP_pressure;BME280_temperature;BME280_humidity;BME280_pressure;Samples;Min_cycle;Max_cycle;Signal;HPM_P1;HPM_P2
2022/11/28 00:00:43;;;;;;;1.80;1.70;;;5.90;99.90;;;;;;497248;239;27963;-65
2022/11/28 00:02:44;;;;;;;2.30;2.10;;;6.00;99.90;;;;;;497227;239;27488;-66
2022/11/28 00:04:45;;;;;;;2.60;1.90;;;6.00;99.90;;;;;;497205;239;27520;-66
2022/11/28 00:06:48;;;;;;;1.98;1.87;;;5.90;99.90;;;;;;497174;239;27487;-66
2022/11/28 00:08:48;;;;;;;1.67;1.60;;;6.00;99.90;;;;;;497140;239;27591;-69
2022/11/28 00:10:49;;;;;;;2.05;1.95;;;6.10;99.90;;;;;;497233;239;27565;-66
2022/11/28 00:12:50;;;;;;;1.75;1.65;;;6.10;99.90;;;;;;497220;239;27579;-66
2022/11/28 00:14:52;;;;;;;2.15;2.03;;;6.10;99.90;;;;;;497219;239;27445;-65
2022/11/28 00:16:53;;;;;;;2.28;2.08;;;6.20;99.90;;;;;;497214;239;27925;-66
2022/11/28 00:18:54;;;;;;;2.30;2.10;;;6.20;99.90;;;;;;497229;239;28026;-69
2022/11/28 00:20:55;;;;;;;2.87;2.12;;;6.20;99.90;;;;;;497191;239;27430;-66
2022/11/28 00:22:57;;;;;;;2.00;1.90;;;6.20;99.90;;;;;;497089;239;27532;-68
2022/11/28 00:24:58;;;;;;;1.80;1.70;;;6.20;99.90;;;;;;497226;239;27448;-65
2022/11/28 00:26:59;;;;;;;2.20;2.00;;;6.30;99.90;;;;;;497190;239;27476;-65
2022/11/28 00:29:01;;;;;;;2.10;1.90;;;6.20;99.90;;;;;;497245;239;27416;-69
2022/11/28 00:31:03;;;;;;;1.95;1.85;;;6.20;99.90;;;;;;497239;239;27485;-67
2022/11/28 00:33:04;;;;;;;2.25;2.00;;;6.20;99.90;;;;;;497156;239;27614;-66
2022/11/28 00:35:05;;;;;;;2.10;1.98;;;6.20;99.90;;;;;;497192;239;27952;-66
2022/11/28 00:37:06;;;;;;;2.40;2.20;;;6.30;99.90;;;;;;497218;239;28038;-69
2022/11/28 00:39:08;;;;;;;1.90;1.80;;;6.40;99.90;;;;;;497187;239;27476;-66
2022/11/28 00:41:09;;;;;;;3.67;2.20;;;6.40;99.90;;;;;;497218;239;27567;-66
2022/11/28 00:43:11;;;;;;;1.95;1.85;;;6.40;99.90;;;;;;497189;239;27452;-65
2022/11/28 00:45:11;;;;;;;2.20;2.00;;;6.40;99.90;;;;;;497147;239;27465;-66
2022/11/28 00:47:13;;;;;;;1.80;1.70;;;6.40;99.90;;;;;;497220;239;27537;-69
2022/11/28 00:49:14;;;;;;;2.00;1.90;;;6.50;99.90;;;;;;497210;239;27591;-66
2022/11/28 00:51:15;;;;;;;2.20;2.10;;;6.50;99.90;;;;;;497204;239;27464;-67
2022/11/28 00:53:17;;;;;;;2.25;2.05;;;6.50;99.90;;;;;;497194;239;28105;-65
2022/11/28 00:55:18;;;;;;;2.08;1.90;;;6.60;99.90;;;;;;497245;239;27892;-66
2022/11/28 00:57:19;;;;;;;2.90;2.03;;;6.60;99.90;;;;;;497200;239;28152;-68
2022/11/28 00:59:20;;;;;;;2.70;2.50;;;6.60;99.90;;;;;;497209;239;27531;-66
2022/11/28 01:01:22;;;;;;;2.37;2.10;;;6.50;99.90;;;;;;497194;239;27473;-67
2022/11/28 01:03:23;;;;;;;3.45;1.83;;;6.50;99.90;;;;;;497151;239;27529;-65
2022/11/28 01:05:24;;;;;;;2.30;2.10;;;6.50;99.90;;;;;;497203;239;27579;-66
2022/11/28 01:07:27;;;;;;;2.30;2.00;;;6.50;99.90;;;;;;497197;239;27599;-68
2022/11/28 01:09:27;;;;;;;6.15;2.10;;;6.50;99.90;;;;;;497134;239;27910;-66
2022/11/28 01:11:28;;;;;;;2.40;2.20;;;6.60;99.90;;;;;;497192;239;28022;-66
2022/11/28 01:13:29;;;;;;;2.53;2.33;;;6.60;99.90;;;;;;497184;239;28153;-68
2022/11/28 01:15:30;;;;;;;2.20;2.10;;;6.50;99.90;;;;;;497240;239;27556;-65
2022/11/28 01:17:32;;;;;;;2.00;1.90;;;6.50;99.90;;;;;;497195;239;27491;-68
2022/11/28 01:19:33;;;;;;;2.10;2.00;;;6.40;99.90;;;;;;497216;239;27453;-65
2022/11/28 01:21:34;;;;;;;2.72;2.20;;;6.40;99.90;;;;;;497186;239;27508;-66
2022/11/28 01:23:35;;;;;;;2.50;2.30;;;6.40;99.90;;;;;;497219;239;27515;-68
2022/11/28 01:25:37;;;;;;;3.28;2.30;;;6.50;99.90;;;;;;497213;239;27555;-66
2022/11/28 01:27:38;;;;;;;2.15;2.05;;;6.50;99.90;;;;;;497204;239;28043;-67
2022/11/28 01:29:39;;;;;;;2.40;2.20;;;6.50;99.90;;;;;;497159;239;27983;-66
2022/11/28 01:31:41;;;;;;;2.58;2.37;;;6.60;99.90;;;;;;497153;239;27476;-66
2022/11/28 01:33:42;;;;;;;4.50;2.42;;;6.50;99.90;;;;;;497222;239;27594;-69
2022/11/28 01:35:43;;;;;;;2.50;2.30;;;6.40;99.90;;;;;;497220;239;27567;-65
2022/11/28 01:37:44;;;;;;;2.78;2.58;;;6.40;99.90;;;;;;497190;239;27603;-67
2022/11/28 01:39:45;;;;;;;2.78;2.53;;;6.40;99.90;;;;;;497187;239;27561;-66
2022/11/28 01:41:47;;;;;;;3.03;2.67;;;6.40;99.90;;;;;;497194;239;27476;-66
2022/11/28 01:43:48;;;;;;;2.80;2.60;;;6.40;99.90;;;;;;497215;239;28430;-68
2022/11/28 01:45:49;;;;;;;2.50;2.30;;;6.40;99.90;;;;;;497226;239;27916;-65
2022/11/28 01:47:50;;;;;;;2.70;2.30;;;6.50;99.90;;;;;;497209;239;28078;-67
2022/11/28 01:49:52;;;;;;;3.37;2.53;;;6.50;99.90;;;;;;497216;239;27547;-66
2022/11/28 01:51:53;;;;;;;2.40;2.30;;;6.50;99.90;;;;;;497239;239;27492;-66
2022/11/28 01:53:54;;;;;;;2.40;2.20;;;6.50;99.90;;;;;;496855;239;27582;-65
2022/11/28 01:55:55;;;;;;;2.70;2.50;;;6.60;99.90;;;;;;497198;239;27457;-66
2022/11/28 01:57:57;;;;;;;3.15;2.85;;;6.60;99.90;;;;;;497214;239;27589;-67
2022/11/28 01:59:58;;;;;;;2.60;2.40;;;6.60;99.90;;;;;;497213;239;27440;-65
2022/11/28 02:01:59;;;;;;;2.15;2.05;;;6.60;99.90;;;;;;497198;239;27976;-66
2022/11/28 02:04:00;;;;;;;3.08;2.60;;;6.50;99.90;;;;;;497244;239;28046;-65
2022/11/28 02:06:02;;;;;;;2.28;2.10;;;6.50;99.90;;;;;;497208;239;27515;-65
2022/11/28 02:08:03;;;;;;;2.10;2.00;;;6.40;99.90;;;;;;497214;239;27489;-67
2022/11/28 02:10:04;;;;;;;2.28;2.08;;;6.30;99.90;;;;;;497187;239;27492;-66
2022/11/28 02:12:06;;;;;;;2.30;2.10;;;6.40;99.90;;;;;;497134;239;27519;-66
2022/11/28 02:14:07;;;;;;;3.92;2.47;;;6.30;99.90;;;;;;497243;239;27483;-69
2022/11/28 02:16:08;;;;;;;3.87;2.37;;;6.40;99.90;;;;;;497179;239;27547;-66
2022/11/28 02:18:09;;;;;;;2.90;2.60;;;6.30;99.90;;;;;;497229;239;27475;-66
2022/11/28 02:20:11;;;;;;;2.50;2.30;;;6.30;99.90;;;;;;497180;239;27913;-66
2022/11/28 02:22:12;;;;;;;4.50;2.95;;;6.40;99.90;;;;;;497213;239;27983;-66
2022/11/28 02:24:13;;;;;;;2.55;2.35;;;6.30;99.90;;;;;;497216;239;27515;-69
2022/11/28 02:26:14;;;;;;;2.50;2.30;;;6.40;99.90;;;;;;497202;239;27558;-66
2022/11/28 02:28:16;;;;;;;2.62;2.42;;;6.40;99.90;;;;;;497197;239;27599;-66
2022/11/28 02:30:17;;;;;;;3.10;2.72;;;6.40;99.90;;;;;;497176;239;27551;-65
2022/11/28 02:32:18;;;;;;;2.50;2.30;;;6.50;99.90;;;;;;497214;239;27496;-66
2022/11/28 02:34:20;;;;;;;2.42;2.22;;;6.50;99.90;;;;;;497212;239;27409;-71
2022/11/28 02:36:21;;;;;;;2.87;2.15;;;6.50;99.90;;;;;;497209;239;28015;-66
2022/11/28 02:38:22;;;;;;;2.83;2.30;;;6.50;99.90;;;;;;497187;239;27949;-66
2022/11/28 02:40:23;;;;;;;2.58;2.37;;;6.50;99.90;;;;;;497201;239;27858;-66
2022/11/28 02:42:25;;;;;;;2.50;2.30;;;6.50;99.90;;;;;;497212;239;27481;-66
2022/11/28 02:44:26;;;;;;;2.95;2.20;;;6.40;99.90;;;;;;497205;239;27480;-68
2022/11/28 02:46:27;;;;;;;3.40;3.10;;;6.40;99.90;;;;;;497183;239;27444;-66
2022/11/28 02:48:28;;;;;;;3.12;2.35;;;6.30;99.90;;;;;;497181;239;27551;-66
2022/11/28 02:50:30;;;;;;;2.72;2.50;;;6.30;99.90;;;;;;497227;239;27527;-65
2022/11/28 02:52:31;;;;;;;2.60;2.40;;;6.30;99.90;;;;;;497201;239;27476;-65
2022/11/28 02:54:32;;;;;;;2.95;2.58;;;6.40;99.90;;;;;;497202;239;28003;-68
2022/11/28 02:56:33;;;;;;;2.60;2.40;;;6.40;99.90;;;;;;497200;239;27888;-65
2022/11/28 02:58:35;;;;;;;2.87;2.67;;;6.40;99.90;;;;;;497244;239;27984;-66
2022/11/28 03:00:36;;;;;;;3.28;2.75;;;6.40;99.90;;;;;;497279;239;27520;-66
2022/11/28 03:02:37;;;;;;;4.32;3.05;;;6.40;99.90;;;;;;497344;239;27448;-66
2022/11/28 03:04:38;;;;;;;3.50;2.70;;;6.40;99.90;;;;;;497209;239;27503;-69
2022/11/28 03:06:40;;;;;;;3.40;3.00;;;6.40;99.90;;;;;;497122;239;27463;-66
2022/11/28 03:08:41;;;;;;;2.80;2.60;;;6.40;99.90;;;;;;497195;239;27487;-66
2022/11/28 03:10:42;;;;;;;2.70;2.50;;;6.40;99.90;;;;;;497180;239;27461;-66
2022/11/28 03:12:43;;;;;;;2.75;2.55;;;6.30;99.90;;;;;;497205;239;27902;-66
2022/11/28 03:14:45;;;;;;;3.10;2.30;;;6.40;99.90;;;;;;497199;239;27991;-68
2022/11/28 03:16:46;;;;;;;3.12;2.87;;;6.30;99.90;;;;;;497192;239;27444;-65
2022/11/28 03:18:47;;;;;;;2.10;2.00;;;6.30;99.90;;;;;;497193;239;27574;-66
2022/11/28 03:20:49;;;;;;;2.45;2.25;;;6.30;99.90;;;;;;497191;239;27445;-66
2022/11/28 03:22:50;;;;;;;5.60;2.53;;;6.40;99.90;;;;;;497221;239;27540;-66
2022/11/28 03:24:51;;;;;;;2.65;2.45;;;6.40;99.90;;;;;;497230;239;27485;-67
2022/11/28 03:26:52;;;;;;;2.80;2.60;;;6.40;99.90;;;;;;497170;239;27911;-65
2022/11/28 03:28:53;;;;;;;3.08;2.85;;;6.40;99.90;;;;;;497174;239;27980;-65
2022/11/28 03:30:55;;;;;;;2.95;2.60;;;6.40;99.90;;;;;;497171;239;28684;-65
2022/11/28 03:32:56;;;;;;;3.17;2.80;;;6.40;99.90;;;;;;497241;239;27902;-65
2022/11/28 03:34:57;;;;;;;3.10;2.80;;;6.40;99.90;;;;;;497209;239;27578;-68
2022/11/28 03:36:59;;;;;;;6.35;2.80;;;6.40;99.90;;;;;;497207;239;27444;-66
2022/11/28 03:39:00;;;;;;;4.03;3.00;;;6.40;99.90;;;;;;497179;239;27496;-65
2022/11/28 03:41:01;;;;;;;2.92;2.70;;;6.40;99.90;;;;;;497170;239;27554;-66
2022/11/28 03:43:02;;;;;;;2.70;2.50;;;6.50;99.90;;;;;;497216;239;27460;-65
2022/11/28 03:45:03;;;;;;;4.43;3.17;;;6.50;99.90;;;;;;497192;239;27475;-68
2022/11/28 03:47:05;;;;;;;4.93;3.55;;;6.50;99.90;;;;;;497151;239;27602;-66
2022/11/28 03:49:08;;;;;;;3.33;3.03;;;6.50;99.90;;;;;;497180;239;27938;-66
2022/11/28 03:51:07;;;;;;;3.50;3.17;;;6.50;99.90;;;;;;497074;239;27898;-66
2022/11/28 03:53:08;;;;;;;3.55;3.08;;;6.40;99.90;;;;;;497237;238;27446;-65
2022/11/28 03:55:10;;;;;;;3.85;2.80;;;6.40;99.90;;;;;;497222;239;27495;-68
2022/11/28 03:57:11;;;;;;;3.55;2.90;;;6.40;99.90;;;;;;497188;238;27453;-65
2022/11/28 03:59:12;;;;;;;3.20;2.92;;;6.40;99.90;;;;;;497216;239;27448;-67
2022/11/28 04:01:13;;;;;;;5.35;3.97;;;6.40;99.90;;;;;;497161;239;27452;-68
2022/11/28 04:03:15;;;;;;;5.10;3.70;;;6.40;99.90;;;;;;497245;238;27486;-65
2022/11/28 04:05:16;;;;;;;5.78;3.62;;;6.40;99.90;;;;;;497221;239;27960;-67
2022/11/28 04:07:17;;;;;;;3.95;3.55;;;6.40;99.90;;;;;;497205;239;27908;-65
2022/11/28 04:09:18;;;;;;;3.80;3.15;;;6.40;99.90;;;;;;497202;239;27956;-67
2022/11/28 04:11:20;;;;;;;3.42;3.10;;;6.40;99.90;;;;;;497201;239;27492;-66
2022/11/28 04:13:21;;;;;;;5.60;4.32;;;6.40;99.90;;;;;;497227;238;27492;-66
2022/11/28 04:15:22;;;;;;;3.47;3.03;;;6.40;99.90;;;;;;497248;239;27622;-68
2022/11/28 04:17:23;;;;;;;3.60;3.30;;;6.30;99.90;;;;;;497208;239;27519;-65
2022/11/28 04:19:25;;;;;;;3.20;2.90;;;6.30;99.90;;;;;;497203;239;27591;-66
2022/11/28 04:21:26;;;;;;;3.65;3.35;;;6.30;99.90;;;;;;497196;239;27484;-65
2022/11/28 04:23:27;;;;;;;5.25;4.00;;;6.30;99.90;;;;;;497242;239;27917;-66
2022/11/28 04:25:29;;;;;;;3.87;3.47;;;6.30;99.90;;;;;;497209;239;28043;-67
2022/11/28 04:27:30;;;;;;;4.05;3.70;;;6.30;99.90;;;;;;497182;239;27979;-65
2022/11/28 04:29:31;;;;;;;4.18;3.75;;;6.40;99.90;;;;;;497207;239;27564;-66
2022/11/28 04:31:32;;;;;;;3.78;3.37;;;6.40;99.90;;;;;;497158;239;27392;-68
2022/11/28 04:33:34;;;;;;;5.12;3.75;;;6.40;99.90;;;;;;497244;239;27437;-66
2022/11/28 04:35:35;;;;;;;4.03;3.65;;;6.30;99.90;;;;;;497214;239;27507;-67
2022/11/28 04:37:36;;;;;;;5.82;4.22;;;6.30;99.90;;;;;;497212;239;27461;-66
2022/11/28 04:39:37;;;;;;;4.25;3.85;;;6.30;99.90;;;;;;497184;239;27476;-66
2022/11/28 04:41:39;;;;;;;4.65;3.95;;;6.40;99.90;;;;;;497203;239;28510;-69
2022/11/28 04:43:40;;;;;;;6.47;3.70;;;6.40;99.90;;;;;;497196;239;27912;-67
2022/11/28 04:45:41;;;;;;;5.12;4.00;;;6.40;99.90;;;;;;497212;239;28067;-66
2022/11/28 04:47:42;;;;;;;4.50;3.90;;;6.40;99.90;;;;;;497228;239;27579;-66
2022/11/28 04:49:44;;;;;;;5.12;3.58;;;6.40;99.90;;;;;;497199;239;27487;-66
2022/11/28 04:51:45;;;;;;;4.43;3.83;;;6.30;99.90;;;;;;497256;239;27413;-66
2022/11/28 04:53:46;;;;;;;3.85;3.25;;;6.30;99.90;;;;;;497223;239;27445;-65
2022/11/28 04:55:47;;;;;;;6.05;4.22;;;6.20;99.90;;;;;;497198;239;27622;-67
2022/11/28 04:57:49;;;;;;;6.32;3.75;;;6.30;99.90;;;;;;497182;239;27496;-65
2022/11/28 04:59:50;;;;;;;3.65;3.35;;;6.30;99.90;;;;;;497185;239;27944;-66
2022/11/28 05:01:51;;;;;;;4.93;3.70;;;6.20;99.90;;;;;;497222;239;28038;-69
2022/11/28 05:03:52;;;;;;;5.15;4.20;;;6.20;99.90;;;;;;497204;239;27447;-65
2022/11/28 05:05:54;;;;;;;3.92;3.58;;;6.20;99.90;;;;;;497183;239;27473;-66
2022/11/28 05:07:55;;;;;;;5.47;4.53;;;6.20;99.90;;;;;;497196;239;27586;-66
2022/11/28 05:09:56;;;;;;;6.68;3.78;;;6.20;99.90;;;;;;497177;239;27484;-66
2022/11/28 05:11:57;;;;;;;5.97;4.57;;;6.20;99.90;;;;;;497225;239;27516;-66
2022/11/28 05:13:59;;;;;;;5.60;4.25;;;6.20;99.90;;;;;;497211;239;27543;-66
2022/11/28 05:16:02;;;;;;;6.05;5.15;;;6.20;99.90;;;;;;497206;239;27628;-66
2022/11/28 05:18:01;;;;;;;4.87;3.80;;;6.20;99.90;;;;;;497089;238;27559;-65
2022/11/28 05:20:02;;;;;;;4.93;4.43;;;6.20;99.90;;;;;;497153;239;27920;-65
2022/11/28 05:22:04;;;;;;;4.32;3.90;;;6.10;99.90;;;;;;497233;239;27940;-69
2022/11/28 05:24:05;;;;;;;5.05;4.10;;;6.10;99.90;;;;;;497209;239;27492;-66
2022/11/28 05:26:06;;;;;;;4.85;4.37;;;6.10;99.90;;;;;;497177;239;27399;-67
2022/11/28 05:28:07;;;;;;;3.92;3.47;;;6.10;99.90;;;;;;497157;239;27460;-66
2022/11/28 05:30:09;;;;;;;3.97;3.60;;;6.10;99.90;;;;;;497126;239;27475;-66
2022/11/28 05:32:10;;;;;;;5.25;4.30;;;6.10;99.90;;;;;;497216;239;27508;-69
2022/11/28 05:34:11;;;;;;;5.05;4.05;;;6.10;99.90;;;;;;497197;239;27568;-65
2022/11/28 05:36:12;;;;;;;4.75;4.30;;;6.20;99.90;;;;;;497183;239;27484;-67
2022/11/28 05:38:14;;;;;;;7.37;3.70;;;6.20;99.90;;;;;;497194;239;27877;-65
2022/11/28 05:40:15;;;;;;;4.80;3.97;;;6.20;99.90;;;;;;497217;239;27964;-66
2022/11/28 05:42:16;;;;;;;4.22;3.60;;;6.10;99.90;;;;;;497223;239;28137;-68
2022/11/28 05:44:17;;;;;;;4.93;3.78;;;6.20;99.90;;;;;;497211;239;27499;-66
2022/11/28 05:46:19;;;;;;;4.35;3.92;;;6.20;99.90;;;;;;497223;239;27520;-67
2022/11/28 05:48:20;;;;;;;4.30;3.60;;;6.20;99.90;;;;;;497223;239;27437;-65
2022/11/28 05:50:21;;;;;;;4.45;4.05;;;6.20;99.90;;;;;;497181;239;27590;-66
2022/11/28 05:52:22;;;;;;;4.95;4.03;;;6.10;99.90;;;;;;497235;239;27508;-68
2022/11/28 05:54:24;;;;;;;6.15;4.05;;;6.10;99.90;;;;;;497212;239;27537;-66
2022/11/28 05:56:25;;;;;;;4.12;3.72;;;6.10;99.90;;;;;;497180;239;28010;-66
2022/11/28 05:58:26;;;;;;;4.82;3.58;;;6.10;99.90;;;;;;497183;239;27964;-65
2022/11/28 06:00:27;;;;;;;4.43;4.03;;;6.10;99.90;;;;;;497192;239;28045;-66
2022/11/28 06:02:29;;;;;;;4.43;3.90;;;6.10;99.90;;;;;;497215;239;27515;-68
2022/11/28 06:04:30;;;;;;;5.15;3.72;;;6.20;99.90;;;;;;497206;239;27453;-67
2022/11/28 06:06:31;;;;;;;4.82;3.80;;;6.20;99.90;;;;;;497205;239;27477;-67
2022/11/28 06:08:32;;;;;;;8.93;4.35;;;6.20;99.90;;;;;;497216;239;27520;-66
2022/11/28 06:10:34;;;;;;;5.20;4.00;;;6.20;99.90;;;;;;497192;239;27579;-65
2022/11/28 06:12:35;;;;;;;5.05;3.75;;;6.20;99.90;;;;;;497252;239;27489;-67
2022/11/28 06:14:36;;;;;;;4.78;4.32;;;6.20;99.90;;;;;;497209;239;27531;-65
2022/11/28 06:16:38;;;;;;;4.97;3.97;;;6.20;99.90;;;;;;497202;239;27901;-67
2022/11/28 06:18:39;;;;;;;9.10;5.00;;;6.20;99.90;;;;;;497196;239;27980;-66
2022/11/28 06:20:40;;;;;;;4.47;3.87;;;6.20;99.90;;;;;;497163;239;28054;-66
2022/11/28 06:22:42;;;;;;;5.55;4.07;;;6.20;99.90;;;;;;497233;239;27563;-68
2022/11/28 06:24:43;;;;;;;5.70;3.83;;;6.20;99.90;;;;;;497180;239;27460;-66
2022/11/28 06:26:44;;;;;;;4.78;3.80;;;6.20;99.90;;;;;;497171;239;27492;-66
2022/11/28 06:28:45;;;;;;;7.28;4.75;;;6.20;99.90;;;;;;497168;239;27583;-65
2022/11/28 06:30:46;;;;;;;10.98;4.95;;;6.20;99.90;;;;;;497174;239;27525;-65
2022/11/28 06:32:48;;;;;;;5.80;4.57;;;6.20;99.90;;;;;;497226;239;27504;-69
2022/11/28 06:34:49;;;;;;;5.80;4.40;;;6.10;99.90;;;;;;497197;239;27909;-65
2022/11/28 06:36:50;;;;;;;4.53;3.83;;;6.10;99.90;;;;;;497195;239;28001;-66
2022/11/28 06:38:52;;;;;;;4.37;3.97;;;6.20;99.90;;;;;;497195;239;28002;-65
2022/11/28 06:40:53;;;;;;;5.82;4.57;;;6.10;99.90;;;;;;497173;239;27588;-66
2022/11/28 06:42:54;;;;;;;4.70;4.03;;;6.10;99.90;;;;;;497206;239;27519;-69
2022/11/28 06:44:55;;;;;;;7.35;5.05;;;6.10;99.90;;;;;;497178;239;27563;-66
2022/11/28 06:46:56;;;;;;;5.95;4.40;;;6.10;99.90;;;;;;497181;239;27512;-66
2022/11/28 06:48:58;;;;;;;5.22;4.20;;;6.10;99.90;;;;;;497201;239;27460;-66
2022/11/28 06:50:59;;;;;;;6.43;4.40;;;6.10;99.90;;;;;;497211;238;27461;-66
2022/11/28 06:53:00;;;;;;;5.12;4.57;;;6.10;99.90;;;;;;497201;239;27925;-68
2022/11/28 06:55:01;;;;;;;5.12;4.37;;;6.10;99.90;;;;;;497194;239;27902;-65
2022/11/28 06:57:03;;;;;;;9.40;5.20;;;6.20;99.90;;;;;;497172;239;28027;-67
2022/11/28 06:59:04;;;;;;;8.23;4.97;;;6.20;99.90;;;;;;497182;239;27476;-66
2022/11/28 07:01:05;;;;;;;5.62;4.70;;;6.20;99.90;;;;;;497108;239;27493;-65
2022/11/28 07:03:06;;;;;;;5.47;4.50;;;6.20;99.90;;;;;;497094;239;27531;-68
2022/11/28 07:05:08;;;;;;;5.15;4.65;;;6.20;99.90;;;;;;497217;239;27456;-66
2022/11/28 07:07:09;;;;;;;6.82;4.72;;;6.10;99.90;;;;;;497217;239;27493;-66
2022/11/28 07:09:10;;;;;;;6.20;4.55;;;6.10;99.90;;;;;;497396;239;27500;-70
2022/11/28 07:11:11;;;;;;;6.10;4.95;;;6.10;99.90;;;;;;497443;239;27972;-66
2022/11/28 07:13:13;;;;;;;6.62;4.82;;;6.10;99.90;;;;;;497201;239;28031;-66
2022/11/28 07:15:14;;;;;;;6.55;4.57;;;6.10;99.90;;;;;;497171;239;27980;-68
2022/11/28 07:17:16;;;;;;;5.37;4.55;;;6.10;99.90;;;;;;497156;239;27490;-66
2022/11/28 07:19:21;;;;;;;6.35;4.68;;;6.00;99.90;;;;;;497182;239;27485;-68
2022/11/28 07:21:18;;;;;;;5.12;4.70;;;6.10;99.90;;;;;;496898;239;27536;-65
2022/11/28 07:23:19;;;;;;;5.43;4.20;;;6.10;99.90;;;;;;497163;239;27520;-66
2022/11/28 07:25:20;;;;;;;5.57;4.68;;;6.10;99.90;;;;;;497178;239;27453;-65
2022/11/28 07:27:21;;;;;;;6.65;5.00;;;6.10;99.90;;;;;;497176;239;27483;-66
2022/11/28 07:29:23;;;;;;;5.35;4.75;;;6.10;99.90;;;;;;497226;239;27512;-69
2022/11/28 07:31:25;;;;;;;5.78;4.55;;;6.10;99.90;;;;;;497164;239;27958;-65
2022/11/28 07:33:25;;;;;;;5.20;4.70;;;6.10;99.90;;;;;;497176;239;28037;-66
2022/11/28 07:35:26;;;;;;;7.85;4.50;;;6.10;99.90;;;;;;497232;239;27453;-66
2022/11/28 07:37:28;;;;;;;7.43;5.55;;;6.10;99.90;;;;;;497178;239;27523;-66
2022/11/28 07:39:29;;;;;;;7.55;5.47;;;6.10;99.90;;;;;;497216;239;27389;-65
2022/11/28 07:41:30;;;;;;;5.12;4.65;;;6.10;99.90;;;;;;497231;239;27560;-66
2022/11/28 07:43:31;;;;;;;5.68;4.90;;;6.10;99.90;;;;;;497247;239;27497;-66
2022/11/28 07:45:33;;;;;;;8.35;5.47;;;6.00;99.90;;;;;;497251;239;27516;-66
2022/11/28 07:47:34;;;;;;;6.37;4.93;;;6.10;99.90;;;;;;497225;239;27489;-66
2022/11/28 07:49:35;;;;;;;5.87;4.90;;;6.10;99.90;;;;;;497239;239;28242;-69
2022/11/28 07:51:37;;;;;;;5.55;4.70;;;6.10;99.90;;;;;;497228;239;27445;-65
2022/11/28 07:53:38;;;;;;;4.97;4.47;;;6.10;99.90;;;;;;497197;239;27477;-67
2022/11/28 07:55:39;;;;;;;7.20;5.60;;;6.10;99.90;;;;;;497203;239;27444;-65
2022/11/28 07:57:40;;;;;;;6.90;5.15;;;6.20;99.90;;;;;;497199;239;27481;-65
2022/11/28 07:59:42;;;;;;;8.48;5.55;;;6.20;99.90;;;;;;497251;239;27939;-69
2022/11/28 08:01:43;;;;;;;6.87;5.70;;;6.30;99.90;;;;;;497242;239;27352;-66
2022/11/28 08:03:44;;;;;;;5.62;5.07;;;6.30;99.90;;;;;;497229;239;27873;-67
2022/11/28 08:05:48;;;;;;;6.80;5.28;;;6.30;99.90;;;;;;497196;239;28041;-65
2022/11/28 08:07:47;;;;;;;6.22;5.18;;;6.30;99.90;;;;;;497026;239;27480;-65
2022/11/28 08:09:48;;;;;;;8.85;5.85;;;6.40;99.90;;;;;;497227;239;27553;-65
2022/11/28 08:11:51;;;;;;;5.45;4.62;;;6.40;99.90;;;;;;497228;239;27429;-66
2022/11/28 08:13:50;;;;;;;5.15;4.60;;;6.50;99.90;;;;;;497117;239;27464;-67
2022/11/28 08:15:52;;;;;;;5.07;4.37;;;6.50;99.90;;;;;;497193;239;27532;-66
2022/11/28 08:17:53;;;;;;;6.32;4.68;;;6.50;99.90;;;;;;497158;239;27606;-65
2022/11/28 08:19:54;;;;;;;4.72;4.20;;;6.60;99.90;;;;;;497238;239;27913;-68
2022/11/28 08:21:55;;;;;;;4.95;4.25;;;6.60;99.90;;;;;;497227;239;27381;-66
2022/11/28 08:23:57;;;;;;;5.20;4.70;;;6.60;99.90;;;;;;497197;239;27575;-66
2022/11/28 08:25:58;;;;;;;4.70;4.30;;;6.60;99.90;;;;;;497195;239;27547;-65
2022/11/28 08:27:59;;;;;;;4.65;4.25;;;6.60;99.90;;;;;;497194;239;27539;-66
2022/11/28 08:30:02;;;;;;;5.40;4.85;;;6.70;99.90;;;;;;497254;239;27408;-69
2022/11/28 08:32:03;;;;;;;5.37;4.12;;;6.70;99.90;;;;;;497256;239;27389;-67
2022/11/28 08:34:04;;;;;;;5.60;4.50;;;6.70;99.90;;;;;;497216;239;27433;-65
2022/11/28 08:36:05;;;;;;;5.57;4.50;;;6.70;99.90;;;;;;497218;239;27960;-66
2022/11/28 08:38:06;;;;;;;4.50;4.10;;;6.80;99.90;;;;;;497159;239;28781;-66
2022/11/28 08:40:08;;;;;;;4.80;4.30;;;6.80;99.90;;;;;;497223;239;27432;-65
2022/11/28 08:42:09;;;;;;;4.82;4.30;;;6.80;99.90;;;;;;497231;239;27489;-68
2022/11/28 08:44:10;;;;;;;7.10;4.55;;;6.80;99.90;;;;;;497232;239;27524;-66
2022/11/28 08:46:11;;;;;;;5.60;4.80;;;6.80;99.90;;;;;;497225;239;27500;-66
2022/11/28 08:48:13;;;;;;;4.60;4.10;;;6.80;99.90;;;;;;497196;239;27531;-65
2022/11/28 08:50:14;;;;;;;5.37;4.05;;;6.90;99.90;;;;;;497211;239;27449;-66
2022/11/28 08:52:16;;;;;;;4.70;3.80;;;6.90;99.90;;;;;;497207;239;27993;-69
2022/11/28 08:54:16;;;;;;;6.35;3.92;;;7.00;99.90;;;;;;497197;239;28032;-66
2022/11/28 08:56:18;;;;;;;5.30;4.25;;;7.00;99.90;;;;;;497205;239;27508;-68
2022/11/28 08:58:19;;;;;;;8.00;4.65;;;7.00;99.90;;;;;;497199;239;27497;-66
2022/11/28 09:00:20;;;;;;;5.45;4.12;;;7.00;99.90;;;;;;497226;239;27380;-66
2022/11/28 09:02:22;;;;;;;5.00;4.47;;;7.00;99.90;;;;;;497219;239;27396;-67
2022/11/28 09:04:23;;;;;;;6.10;4.68;;;7.00;99.90;;;;;;497218;239;27543;-66
2022/11/28 09:06:24;;;;;;;5.68;3.90;;;7.00;99.90;;;;;;497209;239;27988;-66
2022/11/28 09:08:25;;;;;;;5.05;4.55;;;7.00;99.90;;;;;;497266;239;27916;-65
2022/11/28 09:10:27;;;;;;;5.78;4.35;;;6.90;99.90;;;;;;497266;239;27364;-66
2022/11/28 09:12:28;;;;;;;5.70;4.55;;;6.90;99.90;;;;;;497244;239;27475;-67
2022/11/28 09:14:29;;;;;;;6.80;5.07;;;6.90;99.90;;;;;;497225;239;27572;-66
2022/11/28 09:16:30;;;;;;;5.82;4.87;;;6.80;99.90;;;;;;497221;239;27516;-65
2022/11/28 09:18:32;;;;;;;6.05;4.78;;;6.80;99.90;;;;;;497165;239;27460;-66
2022/11/28 09:20:33;;;;;;;5.32;4.50;;;6.80;99.90;;;;;;497248;239;27952;-66
2022/11/28 09:22:34;;;;;;;6.15;4.70;;;6.80;99.90;;;;;;497231;239;27953;-67
2022/11/28 09:24:35;;;;;;;8.52;5.00;;;6.80;99.90;;;;;;497231;239;27829;-66
2022/11/28 09:26:37;;;;;;;6.18;4.78;;;6.80;99.90;;;;;;497218;239;27563;-66
2022/11/28 09:28:38;;;;;;;5.15;4.65;;;6.70;99.90;;;;;;497189;239;27467;-65
2022/11/28 09:30:40;;;;;;;4.22;3.85;;;6.80;99.90;;;;;;497226;239;27548;-66
2022/11/28 09:32:41;;;;;;;4.93;4.43;;;6.80;99.90;;;;;;497216;239;27476;-65
2022/11/28 09:34:42;;;;;;;5.28;4.05;;;6.80;99.90;;;;;;497235;239;28198;-67
2022/11/28 09:36:44;;;;;;;5.00;4.37;;;6.70;99.90;;;;;;497181;238;27904;-65
2022/11/28 09:38:45;;;;;;;4.32;3.92;;;6.60;99.90;;;;;;497190;239;27588;-66
2022/11/28 09:40:46;;;;;;;6.45;4.37;;;6.70;99.90;;;;;;497202;239;27482;-65
2022/11/28 09:42:47;;;;;;;4.50;4.10;;;6.70;99.90;;;;;;497232;239;27449;-65
2022/11/28 09:44:49;;;;;;;5.00;4.30;;;6.60;99.90;;;;;;497224;239;27484;-69
2022/11/28 09:46:50;;;;;;;5.22;4.68;;;6.70;99.90;;;;;;497223;239;27452;-66
2022/11/28 09:48:51;;;;;;;5.70;4.53;;;6.70;99.90;;;;;;497208;239;27488;-67
2022/11/28 09:50:52;;;;;;;7.95;5.25;;;6.70;99.90;;;;;;497194;239;27891;-66
2022/11/28 09:52:54;;;;;;;5.00;4.22;;;6.70;99.90;;;;;;497236;239;27449;-65
2022/11/28 09:54:55;;;;;;;5.87;4.60;;;6.80;99.90;;;;;;497241;239;27488;-67
2022/11/28 09:56:56;;;;;;;4.22;3.80;;;6.80;99.90;;;;;;497210;239;27501;-65
2022/11/28 09:58:59;;;;;;;5.00;4.50;;;6.80;99.90;;;;;;497214;239;27517;-66
2022/11/28 10:01:00;;;;;;;7.67;5.30;;;6.80;99.90;;;;;;497012;239;27536;-65
2022/11/28 10:03:00;;;;;;;5.20;4.70;;;6.80;99.90;;;;;;497164;239;28835;-65
2022/11/28 10:05:01;;;;;;;7.25;4.80;;;6.90;99.90;;;;;;497210;239;27929;-67
2022/11/28 10:07:02;;;;;;;5.10;4.55;;;6.90;99.90;;;;;;497191;239;27448;-65
2022/11/28 10:09:04;;;;;;;5.68;4.57;;;6.90;99.90;;;;;;497200;239;27589;-66
2022/11/28 10:11:05;;;;;;;5.82;3.95;;;7.00;99.90;;;;;;497172;239;27452;-66
2022/11/28 10:13:06;;;;;;;5.78;4.30;;;7.10;99.90;;;;;;497228;239;27576;-65
2022/11/28 10:15:08;;;;;;;4.13;3.60;;;7.20;99.90;;;;;;497217;239;27484;-69
2022/11/28 10:17:09;;;;;;;7.32;3.90;;;7.30;99.90;;;;;;497220;239;28884;-65
2022/11/28 10:19:10;;;;;;;5.07;4.03;;;7.40;99.90;;;;;;497189;239;27491;-67
2022/11/28 10:21:11;;;;;;;4.30;3.53;;;7.40;99.90;;;;;;497189;239;28930;-68
2022/11/28 10:23:13;;;;;;;5.10;4.22;;;7.50;99.90;;;;;;497237;239;27933;-65
2022/11/28 10:25:14;;;;;;;3.60;3.30;;;7.50;99.90;;;;;;497205;239;28739;-66
2022/11/28 10:27:15;;;;;;;5.00;4.17;;;7.60;99.90;;;;;;497191;239;28927;-65
2022/11/28 10:29:16;;;;;;;5.20;3.73;;;7.70;99.90;;;;;;497201;238;28158;-66
2022/11/28 10:31:18;;;;;;;4.50;3.40;;;7.70;99.90;;;;;;497249;239;27710;-70
2022/11/28 10:33:19;;;;;;;3.33;3.03;;;7.70;99.90;;;;;;497223;239;28104;-66
2022/11/28 10:35:20;;;;;;;3.97;3.30;;;7.80;99.90;;;;;;497230;238;28366;-67
2022/11/28 10:37:21;;;;;;;4.83;3.50;;;7.80;99.90;;;;;;497225;239;28219;-65
2022/11/28 10:39:23;;;;;;;4.37;3.17;;;7.80;99.90;;;;;;497213;239;27980;-65